Time;durP1;ratioP1;P1;durP2;ratioP2;P2;SDS_P1;SDS_P2;PMS_P1;PMS_P2;Temp;Humidity;BMP_temperature;BMP_pressure;BME280_temperature;BME280_humidity;BME280_pressure;Samples;Min_cycle;Max_cycle;Signal;HPM_P1;HPM_P2
2022/01/22 00:01:06;;;;;;;11.93;2.07;;;23.40;61.50;;;;;;5034260;28;20232;-74
2022/01/22 00:03:34;;;;;;;7.17;1.23;;;23.50;61.40;;;;;;5033507;28;20185;-80
2022/01/22 00:06:02;;;;;;;5.20;0.93;;;23.50;61.90;;;;;;5033423;28;20224;-75
2022/01/22 00:08:32;;;;;;;12.87;1.37;;;23.50;61.70;;;;;;5033523;28;20204;-80
2022/01/22 00:11:00;;;;;;;6.37;1.10;;;23.50;61.10;;;;;;5031922;28;20187;-75
2022/01/22 00:16:13;;;;;;;5.70;1.33;;;23.80;59.70;;;;;;5033116;28;20238;-81
2022/01/22 00:18:40;;;;;;;5.83;1.40;;;24.10;60.50;;;;;;5033958;28;20188;-73
2022/01/22 00:21:07;;;;;;;6.63;1.20;;;24.10;60.30;;;;;;5032711;28;20240;-79
2022/01/22 00:23:38;;;;;;;7.80;1.10;;;24.00;60.70;;;;;;5033691;28;20590;-83
2022/01/22 00:26:06;;;;;;;4.17;1.00;;;23.80;61.50;;;;;;5033727;28;20191;-77
2022/01/22 00:28:33;;;;;;;8.37;1.33;;;23.80;62.20;;;;;;5032618;28;20183;-79
2022/01/22 00:31:01;;;;;;;3.73;1.10;;;23.80;61.20;;;;;;5025931;28;20181;-79
2022/01/22 00:33:28;;;;;;;3.43;0.87;;;23.60;60.60;;;;;;5030298;28;20203;-81
2022/01/22 00:35:55;;;;;;;7.30;1.70;;;23.60;60.90;;;;;;5032588;28;20180;-76
2022/01/22 00:38:26;;;;;;;4.10;1.20;;;23.20;62.50;;;;;;5029610;28;20203;-80
2022/01/22 00:40:54;;;;;;;6.33;1.47;;;23.20;63.10;;;;;;5032632;28;20236;-81
2022/01/22 00:43:21;;;;;;;4.73;1.30;;;23.50;62.90;;;;;;5032263;28;20177;-78
2022/01/22 00:45:49;;;;;;;8.67;1.53;;;23.80;61.70;;;;;;5034056;28;20212;-82
2022/01/22 00:48:16;;;;;;;4.33;1.17;;;23.90;61.40;;;;;;5033635;28;20180;-75
2022/01/22 00:50:44;;;;;;;5.40;1.53;;;24.00;61.50;;;;;;5036341;28;20275;-84
2022/01/22 00:53:13;;;;;;;9.43;1.43;;;23.80;62.00;;;;;;5044006;28;20184;-87
2022/01/22 00:55:40;;;;;;;5.00;1.30;;;24.00;61.90;;;;;;5034039;28;20559;-78
2022/01/22 00:58:08;;;;;;;5.73;1.30;;;23.90;60.10;;;;;;5033662;28;20185;-80
2022/01/22 01:00:35;;;;;;;4.60;1.07;;;23.80;60.50;;;;;;5028120;28;20239;-79
2022/01/22 01:03:04;;;;;;;3.90;1.00;;;23.80;61.10;;;;;;5031764;28;20754;-85
2022/01/22 01:05:32;;;;;;;11.50;1.67;;;23.70;60.80;;;;;;5031349;28;20263;-78
2022/01/22 01:07:59;;;;;;;3.23;0.97;;;23.60;58.90;;;;;;5033259;28;20192;-75
2022/01/22 01:10:27;;;;;;;7.07;1.50;;;23.80;58.60;;;;;;5032148;28;20188;-78
2022/01/22 01:12:54;;;;;;;5.07;0.90;;;23.80;57.80;;;;;;5032702;28;20189;-75
2022/01/22 01:32:18;;;;;;;4.73;1.00;;;25.00;52.10;;;;;;5029501;28;20196;-76
2022/01/22 01:34:48;;;;;;;6.33;1.50;;;25.30;51.80;;;;;;5029964;28;20239;-79
2022/01/22 01:37:16;;;;;;;2.37;1.00;;;26.00;49.10;;;;;;5031180;28;20187;-75
2022/01/22 01:39:46;;;;;;;6.47;1.50;;;26.00;50.90;;;;;;5031964;28;20224;-80
2022/01/22 01:42:24;;;;;;;3.70;1.17;;;26.50;52.10;;;;;;5031158;28;20224;-83
2022/01/22 01:44:52;;;;;;;7.20;1.13;;;26.50;52.40;;;;;;5032275;28;20176;-78
2022/01/22 01:47:19;;;;;;;3.83;1.13;;;25.60;53.10;;;;;;5032162;28;20196;-78
2022/01/22 01:49:47;;;;;;;8.17;1.30;;;25.10;55.00;;;;;;5032443;28;20180;-81
2022/01/22 01:52:22;;;;;;;8.00;1.40;;;24.70;55.80;;;;;;5032381;28;20724;-73
2022/01/22 01:55:11;;;;;;;8.07;1.40;;;24.50;56.90;;;;;;5032266;28;20184;-77
2022/01/22 01:57:42;;;;;;;7.07;1.33;;;24.30;57.50;;;;;;5027366;28;20191;-76
2022/01/22 02:00:15;;;;;;;4.53;1.37;;;24.50;57.90;;;;;;5031843;28;20181;-85
2022/01/22 02:02:44;;;;;;;4.20;0.87;;;24.30;58.20;;;;;;5032222;28;20196;-83
2022/01/22 02:05:12;;;;;;;5.00;1.30;;;24.30;57.80;;;;;;5031347;28;20181;-79
2022/01/22 02:07:42;;;;;;;8.20;1.73;;;24.10;58.90;;;;;;5032585;28;20643;-82
2022/01/22 02:10:15;;;;;;;7.20;1.10;;;24.00;59.10;;;;;;5031192;28;20185;-81
2022/01/22 02:13:37;;;;;;;2.73;1.10;;;24.10;57.70;;;;;;5032877;28;20177;-78
2022/01/22 02:23:53;;;;;;;3.07;0.90;;;23.80;59.60;;;;;;5032198;28;20296;-81
2022/01/22 02:26:20;;;;;;;7.63;1.00;;;24.30;58.60;;;;;;5031672;28;20200;-80
2022/01/22 02:28:50;;;;;;;5.27;1.07;;;24.30;58.20;;;;;;5043583;28;20211;-79
2022/01/22 02:31:39;;;;;;;5.70;1.40;;;23.90;59.30;;;;;;5033518;28;20185;-87
2022/01/22 02:36:42;;;;;;;5.53;1.60;;;24.30;61.00;;;;;;5035860;28;20172;-80
2022/01/22 02:39:18;;;;;;;4.97;1.50;;;24.30;61.40;;;;;;5034677;28;20295;-86
2022/01/22 02:41:52;;;;;;;7.60;1.50;;;24.70;60.00;;;;;;5034933;28;20226;-79
2022/01/22 02:44:33;;;;;;;8.80;2.03;;;25.20;57.00;;;;;;5035889;28;20727;-78
2022/01/22 02:47:02;;;;;;;7.10;1.30;;;25.10;57.80;;;;;;5033258;28;20250;-78
2022/01/22 02:49:29;;;;;;;4.43;1.27;;;24.80;58.70;;;;;;5037984;28;20184;-82
2022/01/22 02:52:03;;;;;;;7.47;1.40;;;24.40;59.70;;;;;;5035305;28;20192;-77
2022/01/22 02:54:31;;;;;;;5.93;1.57;;;24.30;60.30;;;;;;5035535;28;20192;-79
2022/01/22 02:56:58;;;;;;;6.60;1.67;;;24.10;60.40;;;;;;5035366;28;20196;-76
2022/01/22 02:59:26;;;;;;;7.60;1.80;;;24.40;59.90;;;;;;5035118;28;20530;-74
2022/01/22 03:01:54;;;;;;;5.63;1.40;;;24.80;58.50;;;;;;5033917;28;20200;-78
2022/01/22 03:04:21;;;;;;;4.60;1.50;;;25.60;56.00;;;;;;5035444;28;20185;-78
2022/01/22 03:06:49;;;;;;;5.80;1.10;;;26.10;55.30;;;;;;5033067;28;20223;-74
2022/01/22 03:09:18;;;;;;;7.83;1.23;;;25.60;55.00;;;;;;5032875;28;20482;-74
2022/01/22 03:12:14;;;;;;;9.03;1.40;;;25.30;55.80;;;;;;5033907;28;20655;-77
2022/01/22 03:28:04;;;;;;;6.87;1.90;;;26.40;53.40;;;;;;5032863;28;20191;-82
2022/01/22 03:30:31;;;;;;;4.20;1.23;;;26.00;53.40;;;;;;5032396;28;20331;-76
2022/01/22 03:32:59;;;;;;;6.30;1.40;;;25.90;53.40;;;;;;5033463;28;20189;-77
2022/01/22 03:35:28;;;;;;;4.93;1.10;;;25.80;52.70;;;;;;5034194;28;20172;-78
2022/01/22 03:37:58;;;;;;;6.10;1.20;;;26.20;51.60;;;;;;5032884;28;20180;-77
2022/01/22 03:40:29;;;;;;;4.77;1.20;;;26.60;51.00;;;;;;5029524;28;20220;-82
2022/01/22 03:42:57;;;;;;;4.03;1.10;;;26.90;50.10;;;;;;5031612;28;20311;-76
2022/01/22 03:45:25;;;;;;;7.63;1.23;;;27.30;49.60;;;;;;5029928;28;20184;-82
2022/01/22 03:47:52;;;;;;;3.97;1.07;;;27.40;48.20;;;;;;5031768;28;20185;-81
2022/01/22 03:50:20;;;;;;;4.60;1.00;;;27.30;48.00;;;;;;5032239;28;20195;-80
2022/01/22 03:52:48;;;;;;;4.37;1.20;;;27.30;47.40;;;;;;5030169;28;20251;-77
2022/01/22 03:55:36;;;;;;;4.30;1.03;;;27.30;47.50;;;;;;5033419;28;20177;-76
2022/01/22 03:58:04;;;;;;;4.47;0.77;;;27.20;47.80;;;;;;5049665;28;20193;-77
2022/01/22 04:00:31;;;;;;;6.37;1.23;;;27.50;47.60;;;;;;5034162;28;20180;-78
2022/01/22 04:03:28;;;;;;;6.47;1.10;;;27.60;47.60;;;;;;5035329;28;20607;-77
2022/01/22 04:08:41;;;;;;;4.80;1.03;;;27.90;46.10;;;;;;5035034;28;20187;-74
2022/01/22 04:11:13;;;;;;;4.30;0.80;;;27.80;46.00;;;;;;5033272;28;20191;-77
2022/01/22 04:13:42;;;;;;;3.23;0.90;;;27.80;45.90;;;;;;5035297;28;20188;-77
2022/01/22 04:16:12;;;;;;;4.03;1.17;;;28.00;45.00;;;;;;5035986;28;20227;-78
2022/01/22 04:26:59;;;;;;;3.03;1.20;;;28.30;42.30;;;;;;5045331;28;20187;-79
2022/01/22 04:29:28;;;;;;;4.27;1.00;;;28.70;42.50;;;;;;5039370;28;20205;-77
2022/01/22 04:31:55;;;;;;;4.73;1.00;;;28.70;41.70;;;;;;5040437;28;20193;-75
2022/01/22 04:34:23;;;;;;;3.67;0.67;;;28.40;42.10;;;;;;5047691;28;20663;-79
2022/01/22 04:36:50;;;;;;;2.47;0.90;;;28.70;41.70;;;;;;5047065;28;20177;-77
2022/01/22 04:39:22;;;;;;;5.47;1.00;;;28.30;42.30;;;;;;5046906;28;20212;-80
2022/01/22 04:41:52;;;;;;;6.17;1.40;;;27.90;43.80;;;;;;5048093;28;20212;-78
2022/01/22 04:44:20;;;;;;;4.23;1.20;;;27.80;45.00;;;;;;5033161;28;20179;-80
2022/01/22 04:46:59;;;;;;;7.60;1.30;;;28.00;43.10;;;;;;5032377;28;20184;-78
2022/01/22 04:57:24;;;;;;;4.50;1.27;;;27.00;46.00;;;;;;5030143;28;20199;-75
2022/01/22 04:59:52;;;;;;;7.73;1.30;;;26.90;47.60;;;;;;5031510;28;20173;-76
2022/01/22 05:02:19;;;;;;;6.37;1.73;;;26.90;48.00;;;;;;5031089;28;20586;-77
2022/01/22 05:04:46;;;;;;;6.17;1.53;;;26.70;48.00;;;;;;5032416;28;20185;-74
2022/01/22 05:07:14;;;;;;;6.37;1.43;;;26.40;48.90;;;;;;5031484;28;20194;-75
2022/01/22 05:09:41;;;;;;;4.73;1.00;;;26.30;47.40;;;;;;5032551;28;20176;-76
2022/01/22 05:12:09;;;;;;;4.30;1.20;;;26.20;49.00;;;;;;5032457;28;20208;-78
2022/01/22 05:14:37;;;;;;;6.63;1.27;;;26.10;49.50;;;;;;5031468;28;20197;-73
2022/01/22 05:17:07;;;;;;;7.00;1.47;;;25.60;50.60;;;;;;5031603;28;20643;-73
2022/01/22 05:22:14;;;;;;;7.10;1.63;;;25.60;51.10;;;;;;5027067;28;20208;-76
2022/01/22 05:24:46;;;;;;;7.43;1.77;;;25.90;51.10;;;;;;5031125;28;20177;-77
2022/01/22 05:27:30;;;;;;;4.47;1.20;;;25.80;50.10;;;;;;5031110;28;20204;-78
2022/01/22 05:38:22;;;;;;;7.47;1.20;;;27.90;43.90;;;;;;4970848;28;20333;-76
2022/01/22 05:40:50;;;;;;;6.27;1.20;;;28.70;41.50;;;;;;5026250;28;20227;-74
2022/01/22 05:43:17;;;;;;;4.37;1.33;;;28.80;41.90;;;;;;5032823;28;20587;-76
2022/01/22 05:45:45;;;;;;;5.10;1.20;;;28.90;40.90;;;;;;5030887;28;20650;-79
2022/01/22 05:48:12;;;;;;;5.60;1.58;;;28.80;41.10;;;;;;5031491;28;20681;-76
2022/01/22 05:50:52;;;;;;;8.93;1.58;;;29.80;38.50;;;;;;5032465;28;20660;-76
2022/01/22 06:01:22;;;;;;;3.92;1.10;;;30.90;37.10;;;;;;5027015;28;20871;-82
2022/01/22 06:03:50;;;;;;;6.10;1.08;;;31.30;37.80;;;;;;5028626;28;20263;-73
2022/01/22 06:06:17;;;;;;;3.92;1.27;;;30.90;38.00;;;;;;5028216;28;20222;-79
2022/01/22 06:08:48;;;;;;;6.20;1.10;;;30.90;38.80;;;;;;5032372;28;20235;-76
2022/01/22 06:11:24;;;;;;;9.73;1.30;;;30.90;38.80;;;;;;5035797;28;20647;-81
2022/01/22 06:13:52;;;;;;;6.97;1.42;;;31.20;38.80;;;;;;5031071;28;20200;-82
2022/01/22 06:16:24;;;;;;;4.25;1.20;;;30.60;39.60;;;;;;5031001;28;20184;-79
2022/01/22 06:18:52;;;;;;;4.80;1.33;;;30.90;39.60;;;;;;5032383;28;20186;-77
2022/01/22 06:21:19;;;;;;;5.15;1.13;;;30.80;39.30;;;;;;5030234;28;20204;-73
2022/01/22 06:23:47;;;;;;;2.50;1.05;;;30.70;39.30;;;;;;5035503;28;20184;-76
2022/01/22 06:26:15;;;;;;;3.92;1.25;;;30.80;39.70;;;;;;5033684;28;20250;-81
2022/01/22 06:28:46;;;;;;;7.47;1.40;;;30.70;39.40;;;;;;5035442;28;20196;-75
2022/01/22 06:31:14;;;;;;;6.57;1.20;;;31.30;39.20;;;;;;5030349;28;20267;-76
2022/01/22 06:33:41;;;;;;;3.75;1.33;;;31.30;39.60;;;;;;5033951;28;20707;-76
2022/01/22 06:36:08;;;;;;;2.33;0.80;;;31.00;39.00;;;;;;5034397;28;20177;-76
2022/01/22 06:38:36;;;;;;;4.60;1.40;;;30.60;38.90;;;;;;5035349;28;20177;-73
2022/01/22 06:43:48;;;;;;;5.00;1.20;;;31.30;37.40;;;;;;5034924;28;20187;-72
2022/01/22 06:46:16;;;;;;;3.78;1.40;;;30.00;39.90;;;;;;5035334;28;20195;-76
2022/01/22 06:48:43;;;;;;;4.30;1.03;;;28.30;43.20;;;;;;5034841;28;20173;-74
2022/01/22 06:51:11;;;;;;;9.20;1.50;;;27.50;45.40;;;;;;5035601;28;20189;-75
2022/01/22 06:53:40;;;;;;;5.80;1.10;;;26.50;47.60;;;;;;5035243;28;20189;-77
2022/01/22 06:56:10;;;;;;;4.57;1.23;;;26.70;46.80;;;;;;5035046;28;20169;-79
2022/01/22 06:58:37;;;;;;;4.27;1.23;;;26.10;47.50;;;;;;5034209;28;20699;-81
2022/01/22 07:01:07;;;;;;;8.07;1.47;;;25.90;48.80;;;;;;5034973;28;20211;-79
2022/01/22 07:03:38;;;;;;;7.77;1.20;;;26.00;49.10;;;;;;5032978;28;20291;-85
2022/01/22 07:06:05;;;;;;;6.93;1.17;;;26.20;48.30;;;;;;5034295;28;20173;-78
2022/01/22 07:08:35;;;;;;;5.63;1.53;;;26.20;48.60;;;;;;5035013;28;20211;-76
2022/01/22 07:11:03;;;;;;;3.20;1.27;;;26.00;49.80;;;;;;5035201;28;20168;-79
2022/01/22 07:13:30;;;;;;;7.90;1.93;;;25.90;50.40;;;;;;5036443;28;20643;-76
2022/01/22 07:15:58;;;;;;;9.27;2.17;;;25.80;51.40;;;;;;5036288;28;20434;-72
2022/01/22 07:18:28;;;;;;;9.30;1.47;;;26.10;51.50;;;;;;5034459;28;20421;-73
2022/01/22 07:20:56;;;;;;;8.07;1.67;;;27.20;48.70;;;;;;5031788;28;20212;-74
2022/01/22 07:26:04;;;;;;;9.87;1.83;;;27.60;46.30;;;;;;5033533;28;20168;-79
2022/01/22 07:28:32;;;;;;;8.43;2.03;;;27.00;49.20;;;;;;5032485;28;20184;-76
2022/01/22 07:31:03;;;;;;;8.37;1.47;;;26.80;51.10;;;;;;5032074;28;20247;-79
2022/01/22 07:33:30;;;;;;;8.40;2.00;;;26.60;52.20;;;;;;5035141;28;20180;-78
2022/01/22 07:35:58;;;;;;;8.67;1.70;;;26.30;53.30;;;;;;5034803;28;20176;-75
2022/01/22 07:38:25;;;;;;;8.43;1.77;;;26.30;53.30;;;;;;5031665;28;20267;-79
2022/01/22 07:40:56;;;;;;;7.87;1.73;;;26.30;52.80;;;;;;5032723;28;20264;-80
2022/01/22 07:43:24;;;;;;;11.27;1.87;;;26.10;52.80;;;;;;5045634;28;20208;-78
2022/01/22 07:45:51;;;;;;;6.37;1.43;;;26.50;52.30;;;;;;5034079;28;20184;-79
2022/01/22 07:48:19;;;;;;;6.57;1.20;;;26.80;51.60;;;;;;5033135;28;20203;-80
2022/01/22 07:50:46;;;;;;;6.40;1.50;;;26.90;51.10;;;;;;5034466;28;20199;-77
2022/01/22 07:53:13;;;;;;;6.50;1.63;;;26.80;51.10;;;;;;5033822;28;20200;-79
2022/01/22 07:55:41;;;;;;;12.90;1.83;;;26.40;52.00;;;;;;5029274;28;20199;-80
2022/01/22 07:58:08;;;;;;;6.43;1.63;;;25.90;53.50;;;;;;5032621;28;20212;-82
2022/01/22 08:00:36;;;;;;;10.70;2.00;;;25.90;53.40;;;;;;5034185;28;20212;-77
2022/01/22 08:03:03;;;;;;;8.33;1.97;;;25.50;53.50;;;;;;5033653;28;20209;-79
2022/01/22 08:05:31;;;;;;;8.87;1.90;;;25.20;53.80;;;;;;5032596;28;20565;-74
2022/01/22 08:07:58;;;;;;;8.27;1.80;;;25.10;53.10;;;;;;5033706;28;20184;-74
2022/01/22 08:10:26;;;;;;;5.90;2.10;;;25.10;53.50;;;;;;5035622;28;20203;-75
2022/01/22 08:12:53;;;;;;;10.13;1.50;;;24.80;53.40;;;;;;5054819;28;20552;-77
2022/01/22 08:15:21;;;;;;;6.73;1.70;;;24.80;53.40;;;;;;5035922;28;20693;-74
2022/01/22 08:17:49;;;;;;;5.73;1.43;;;24.60;54.00;;;;;;5030685;28;20620;-74
2022/01/22 08:20:17;;;;;;;12.43;1.80;;;24.30;54.50;;;;;;5033868;28;20203;-77
2022/01/22 08:22:45;;;;;;;7.67;1.73;;;24.10;56.30;;;;;;5033832;28;20259;-75
2022/01/22 08:25:12;;;;;;;9.23;2.17;;;24.00;58.20;;;;;;5033041;28;20195;-75
2022/01/22 08:30:26;;;;;;;8.70;1.87;;;23.80;58.50;;;;;;5025472;28;20608;-78
2022/01/22 08:38:13;;;;;;;8.57;1.93;;;23.20;60.40;;;;;;5033459;28;20342;-73
2022/01/22 08:40:40;;;;;;;8.63;1.73;;;22.90;60.50;;;;;;5033286;28;20658;-74
2022/01/22 08:43:08;;;;;;;7.33;2.10;;;22.80;60.70;;;;;;5033534;28;20192;-78
2022/01/22 08:45:36;;;;;;;6.47;1.40;;;22.80;61.30;;;;;;5032927;28;20173;-82
2022/01/22 08:48:04;;;;;;;7.17;1.70;;;22.70;61.80;;;;;;5034970;28;20271;-75
2022/01/22 08:50:34;;;;;;;7.00;1.57;;;22.60;62.10;;;;;;5044505;28;20185;-76
2022/01/22 08:53:02;;;;;;;7.67;2.00;;;22.50;62.20;;;;;;5033207;28;20196;-81
2022/01/22 08:55:29;;;;;;;8.77;1.90;;;22.60;62.30;;;;;;5032142;28;20185;-80
2022/01/22 08:57:57;;;;;;;9.07;2.00;;;22.50;62.80;;;;;;5032146;28;20275;-76
2022/01/22 09:00:24;;;;;;;10.40;1.80;;;22.40;63.70;;;;;;5031962;28;20179;-78
2022/01/22 09:02:52;;;;;;;9.63;1.80;;;22.40;64.20;;;;;;5033574;28;20220;-79
2022/01/22 09:05:20;;;;;;;6.13;1.73;;;22.30;64.40;;;;;;5033020;28;20608;-82
2022/01/22 09:07:47;;;;;;;15.37;3.10;;;22.30;65.40;;;;;;5033355;28;20177;-76
2022/01/22 09:10:15;;;;;;;13.80;2.30;;;22.30;66.20;;;;;;5032471;28;20231;-82
2022/01/22 09:12:43;;;;;;;12.17;2.17;;;22.20;67.20;;;;;;5034279;28;20264;-80
2022/01/22 09:15:11;;;;;;;9.67;2.00;;;22.20;68.30;;;;;;5032477;28;20725;-77
2022/01/22 09:17:39;;;;;;;8.33;1.90;;;22.10;69.00;;;;;;5033104;28;20184;-79
2022/01/22 09:20:13;;;;;;;11.63;2.00;;;22.10;69.50;;;;;;5032402;28;20195;-82
2022/01/22 09:22:40;;;;;;;10.80;2.10;;;22.00;70.10;;;;;;5029750;28;20682;-81
2022/01/22 09:25:14;;;;;;;10.77;2.37;;;22.00;70.50;;;;;;5031306;28;20222;-81
2022/01/22 09:27:42;;;;;;;8.83;2.10;;;22.00;71.20;;;;;;5032774;28;20673;-82
2022/01/22 09:30:10;;;;;;;9.60;2.70;;;22.00;71.30;;;;;;5023502;28;20241;-78
2022/01/22 09:32:37;;;;;;;7.07;2.03;;;22.00;71.40;;;;;;5031983;28;20181;-80
2022/01/22 09:35:05;;;;;;;6.03;2.10;;;22.00;71.90;;;;;;5032170;28;20180;-83
2022/01/22 09:37:32;;;;;;;8.60;2.30;;;22.00;71.40;;;;;;5029045;28;20181;-78
2022/01/22 09:40:00;;;;;;;10.97;1.80;;;22.00;71.60;;;;;;5031917;28;20698;-78
2022/01/22 09:42:27;;;;;;;6.77;2.00;;;22.00;70.30;;;;;;5032301;28;20299;-82
2022/01/22 09:44:55;;;;;;;7.27;2.23;;;21.90;69.80;;;;;;5031920;28;20187;-82
2022/01/22 09:47:23;;;;;;;5.10;1.63;;;22.00;69.30;;;;;;5031025;28;20553;-78
2022/01/22 09:49:50;;;;;;;5.50;1.60;;;21.90;69.30;;;;;;5032568;28;20177;-80
2022/01/22 09:52:19;;;;;;;8.90;2.00;;;22.00;69.00;;;;;;5032308;28;20189;-79
2022/01/22 09:54:46;;;;;;;6.90;2.33;;;22.00;69.30;;;;;;5032635;28;20579;-84
2022/01/22 09:57:14;;;;;;;6.90;2.30;;;22.00;69.20;;;;;;5032238;28;20252;-82
2022/01/22 09:59:41;;;;;;;7.50;2.00;;;21.90;69.20;;;;;;5032515;28;20254;-81
2022/01/22 10:02:15;;;;;;;7.10;1.70;;;21.90;69.40;;;;;;5031243;28;20228;-80
2022/01/22 10:04:49;;;;;;;8.47;2.30;;;21.90;69.90;;;;;;5028398;28;20612;-84
2022/01/22 10:07:21;;;;;;;7.43;2.27;;;21.90;70.10;;;;;;5031813;28;20665;-81
2022/01/22 10:09:58;;;;;;;12.57;2.30;;;21.90;71.10;;;;;;5029524;28;20202;-79
2022/01/22 10:12:29;;;;;;;11.70;2.70;;;21.90;72.00;;;;;;5032180;28;20631;-82
2022/01/22 10:15:15;;;;;;;12.07;2.20;;;21.80;73.50;;;;;;5032261;28;20180;-82
2022/01/22 10:17:46;;;;;;;7.87;1.80;;;21.80;74.30;;;;;;5030260;28;20196;-78
2022/01/22 10:20:29;;;;;;;3.70;1.63;;;21.80;74.80;;;;;;5031316;28;20535;-81
2022/01/22 10:23:00;;;;;;;10.33;2.00;;;21.80;74.70;;;;;;5038071;28;20218;-82
2022/01/22 10:25:55;;;;;;;9.13;1.70;;;21.70;74.90;;;;;;5034889;28;20188;-76
2022/01/22 10:28:25;;;;;;;8.07;2.30;;;21.70;74.80;;;;;;5025591;28;20184;-82
2022/01/22 10:31:18;;;;;;;10.73;2.27;;;21.80;75.00;;;;;;5022320;28;20196;-82
2022/01/22 10:34:04;;;;;;;10.10;2.33;;;21.80;74.80;;;;;;5029329;28;20275;-83
2022/01/22 10:36:32;;;;;;;4.67;1.50;;;21.80;74.40;;;;;;5032258;28;20211;-77
2022/01/22 10:39:00;;;;;;;8.50;1.83;;;21.80;74.10;;;;;;5031330;28;20703;-77
2022/01/22 10:41:42;;;;;;;7.37;1.97;;;21.80;73.70;;;;;;5025470;28;20265;-75
2022/01/22 10:44:15;;;;;;;9.50;2.27;;;21.80;73.90;;;;;;5031977;28;20189;-87
2022/01/22 10:47:03;;;;;;;9.13;2.17;;;21.80;73.50;;;;;;5030903;28;20203;-79
2022/01/22 10:49:32;;;;;;;8.50;2.63;;;21.80;72.90;;;;;;5031969;28;20715;-84
2022/01/22 10:52:03;;;;;;;5.63;1.57;;;21.80;72.60;;;;;;5031973;28;20223;-80
2022/01/22 10:54:33;;;;;;;9.53;2.20;;;21.80;72.30;;;;;;5032355;28;20183;-84
2022/01/22 10:57:19;;;;;;;5.70;1.70;;;21.80;71.80;;;;;;5035213;28;20184;-84
2022/01/22 10:59:55;;;;;;;10.97;1.63;;;21.80;71.70;;;;;;5036336;28;20568;-82
2022/01/22 11:02:40;;;;;;;7.07;1.60;;;21.70;71.80;;;;;;5050461;28;20220;-80
2022/01/22 11:05:08;;;;;;;8.27;1.83;;;21.70;71.40;;;;;;5035939;28;20200;-84
2022/01/22 11:07:36;;;;;;;8.27;2.03;;;21.70;71.50;;;;;;5034702;28;20235;-81
2022/01/22 11:10:04;;;;;;;8.43;1.97;;;21.60;71.80;;;;;;5035678;28;20184;-75
2022/01/22 11:12:31;;;;;;;6.77;1.80;;;21.50;72.00;;;;;;5035251;28;20552;-82
2022/01/22 11:14:58;;;;;;;11.63;2.60;;;21.50;72.20;;;;;;5035215;28;20184;-86
2022/01/22 11:17:31;;;;;;;7.60;1.80;;;21.40;72.20;;;;;;5051019;28;20663;-86
2022/01/22 11:20:01;;;;;;;10.80;2.50;;;21.40;72.00;;;;;;5033787;28;20647;-80
2022/01/22 11:22:31;;;;;;;6.53;1.60;;;21.50;72.00;;;;;;5035542;28;20231;-85
2022/01/22 11:24:59;;;;;;;11.67;1.77;;;21.60;71.60;;;;;;5033148;28;20626;-85
2022/01/22 11:27:28;;;;;;;5.07;1.57;;;21.60;71.30;;;;;;5035218;28;20195;-84
2022/01/22 11:30:11;;;;;;;9.27;1.83;;;21.60;71.30;;;;;;5027565;28;20181;-78
2022/01/22 11:32:52;;;;;;;7.30;1.90;;;21.70;71.30;;;;;;5034668;28;20256;-86
2022/01/22 11:35:44;;;;;;;3.40;1.90;;;21.60;71.20;;;;;;5035632;28;20658;-80
2022/01/22 11:38:17;;;;;;;10.00;2.03;;;21.70;71.20;;;;;;5034656;28;20277;-81
2022/01/22 11:41:07;;;;;;;10.03;2.00;;;21.70;71.30;;;;;;5034620;28;20278;-81
2022/01/22 11:46:36;;;;;;;10.80;2.27;;;21.70;71.50;;;;;;5041067;28;20271;-85
2022/01/22 11:49:28;;;;;;;8.23;1.83;;;21.70;71.80;;;;;;5046566;28;20183;-79
2022/01/22 11:52:14;;;;;;;11.57;1.73;;;21.70;71.60;;;;;;5036835;28;20244;-86
2022/01/22 11:54:51;;;;;;;6.87;1.93;;;21.80;71.80;;;;;;5038635;28;20180;-86
2022/01/22 11:57:19;;;;;;;8.03;1.70;;;21.80;71.90;;;;;;5039332;28;20176;-77
2022/01/22 12:00:16;;;;;;;9.10;1.97;;;21.80;71.90;;;;;;5049780;28;20168;-87
2022/01/22 12:02:44;;;;;;;13.33;1.73;;;21.80;73.50;;;;;;5036372;28;20215;-86
2022/01/22 12:05:12;;;;;;;7.73;1.57;;;21.80;74.20;;;;;;5049634;28;20643;-84
2022/01/22 12:07:41;;;;;;;7.23;1.50;;;21.80;74.50;;;;;;5033715;28;20189;-86
2022/01/22 12:10:32;;;;;;;8.57;1.53;;;21.80;74.70;;;;;;5033090;28;20188;-85
2022/01/22 12:16:10;;;;;;;9.67;1.47;;;21.80;75.20;;;;;;5034053;28;20239;-85
2022/01/22 12:18:44;;;;;;;3.57;1.60;;;21.80;74.10;;;;;;5033386;28;20185;-85
2022/01/22 12:21:37;;;;;;;8.77;1.87;;;21.70;74.30;;;;;;5032619;28;20358;-77
2022/01/22 12:24:14;;;;;;;5.37;1.83;;;21.70;74.40;;;;;;5030806;28;20173;-81
2022/01/22 12:26:48;;;;;;;6.60;1.50;;;21.70;74.80;;;;;;5032451;28;20286;-82
2022/01/22 12:29:37;;;;;;;8.57;1.87;;;21.60;75.80;;;;;;5031493;28;20188;-84
2022/01/22 12:32:08;;;;;;;10.33;2.07;;;21.50;76.80;;;;;;5033582;28;20196;-80
2022/01/22 12:35:13;;;;;;;7.70;1.67;;;21.40;77.20;;;;;;5034231;28;20172;-85
2022/01/22 12:37:46;;;;;;;10.60;1.60;;;21.30;77.10;;;;;;5010368;28;20205;-83
2022/01/22 12:40:50;;;;;;;8.17;1.63;;;21.30;76.10;;;;;;5029651;28;20224;-88
2022/01/22 12:43:34;;;;;;;3.80;1.50;;;21.30;74.30;;;;;;5025471;28;20608;-87
2022/01/22 12:46:06;;;;;;;4.90;1.40;;;21.30;72.30;;;;;;5030123;28;20189;-82
2022/01/22 12:49:00;;;;;;;5.53;1.70;;;21.30;71.60;;;;;;5027977;28;20956;-88
2022/01/22 12:52:16;;;;;;;5.90;1.17;;;21.30;70.50;;;;;;5033409;28;20184;-87
2022/01/22 12:55:17;;;;;;;6.87;1.50;;;21.40;70.00;;;;;;5013090;28;20200;-86
2022/01/22 12:57:45;;;;;;;3.90;1.10;;;21.40;69.60;;;;;;5031581;28;20203;-83
2022/01/22 13:00:18;;;;;;;3.67;1.30;;;21.30;69.20;;;;;;5032754;28;20212;-83
2022/01/22 13:03:39;;;;;;;;;;;;;;;;;;;;;
2022/01/22 13:06:45;;;;;;;5.07;1.40;;;21.30;70.00;;;;;;5030908;28;20251;-85
2022/01/22 13:09:13;;;;;;;5.33;1.20;;;21.30;72.00;;;;;;5030157;28;20196;-80
2022/01/22 13:11:47;;;;;;;5.13;1.30;;;21.20;72.70;;;;;;5029543;28;20184;-80
2022/01/22 13:14:18;;;;;;;4.70;1.40;;;21.10;73.60;;;;;;5032181;28;20665;-81
2022/01/22 13:16:54;;;;;;;10.33;1.70;;;21.00;74.10;;;;;;5032828;28;20188;-79
2022/01/22 13:19:23;;;;;;;4.53;1.17;;;21.00;74.80;;;;;;5030627;28;20238;-80
2022/01/22 13:21:53;;;;;;;10.63;1.70;;;20.90;75.40;;;;;;5032369;28;20216;-81
2022/01/22 13:24:26;;;;;;;4.17;1.50;;;20.90;75.70;;;;;;5029914;28;20627;-80
2022/01/22 13:27:11;;;;;;;6.27;1.47;;;20.90;76.10;;;;;;5031966;28;20189;-80
2022/01/22 13:29:52;;;;;;;6.77;1.97;;;20.90;76.10;;;;;;5032717;28;20180;-81
2022/01/22 13:37:59;;;;;;;7.80;1.77;;;21.10;75.70;;;;;;5033757;28;20173;-77
2022/01/22 13:48:30;;;;;;;9.53;1.40;;;21.10;77.70;;;;;;5028531;28;20603;-85
2022/01/22 13:50:58;;;;;;;4.50;1.10;;;21.10;77.60;;;;;;5031711;28;20266;-79
2022/01/22 13:53:26;;;;;;;9.03;1.83;;;21.00;78.20;;;;;;5030433;28;20709;-81
2022/01/22 13:56:09;;;;;;;4.90;1.30;;;21.00;79.10;;;;;;5032116;28;20181;-82
2022/01/22 13:58:37;;;;;;;2.03;1.17;;;21.00;79.50;;;;;;5030986;28;20188;-79
2022/01/22 14:01:32;;;;;;;6.37;1.13;;;21.10;79.50;;;;;;5028459;28;20241;-83
2022/01/22 14:04:07;;;;;;;7.57;1.30;;;21.20;79.20;;;;;;5032377;28;20677;-78
2022/01/22 14:06:35;;;;;;;4.77;1.40;;;21.30;78.40;;;;;;5032382;28;20172;-80
2022/01/22 14:09:31;;;;;;;4.90;1.33;;;21.20;77.90;;;;;;5031135;28;20189;-82
2022/01/22 14:12:15;;;;;;;7.77;1.33;;;21.10;78.30;;;;;;5023411;28;20190;-80
2022/01/22 14:15:09;;;;;;;7.63;1.47;;;20.90;78.50;;;;;;5031580;28;20184;-80
2022/01/22 14:17:53;;;;;;;5.23;1.37;;;20.80;78.70;;;;;;5031456;28;20253;-77
2022/01/22 14:20:28;;;;;;;3.10;1.03;;;20.80;79.10;;;;;;5031980;28;20173;-76
2022/01/22 14:23:17;;;;;;;2.90;0.90;;;20.80;78.30;;;;;;5031760;28;20219;-80
2022/01/22 14:25:58;;;;;;;6.87;1.40;;;20.80;78.30;;;;;;5029622;28;20260;-82
2022/01/22 14:28:48;;;;;;;4.03;1.07;;;20.80;78.50;;;;;;5032422;28;20177;-78
2022/01/22 14:31:21;;;;;;;2.57;1.30;;;20.70;78.60;;;;;;5032160;28;20191;-82
2022/01/22 14:33:48;;;;;;;5.73;1.37;;;20.70;78.90;;;;;;5036105;28;20510;-77
2022/01/22 14:36:18;;;;;;;3.20;1.10;;;20.70;78.90;;;;;;5032809;28;20211;-80
2022/01/22 14:38:55;;;;;;;4.27;1.10;;;20.70;78.90;;;;;;5035179;28;20275;-81
2022/01/22 14:44:29;;;;;;;3.83;1.20;;;20.50;80.20;;;;;;5035553;28;20191;-81
2022/01/22 14:47:08;;;;;;;3.33;1.00;;;20.50;81.10;;;;;;5029360;28;20283;-80
2022/01/22 14:49:41;;;;;;;5.73;1.30;;;20.50;82.30;;;;;;5035217;28;20231;-80
2022/01/22 14:52:12;;;;;;;3.30;1.23;;;20.30;83.30;;;;;;5033251;28;20683;-78
2022/01/22 14:54:42;;;;;;;5.77;1.10;;;20.20;84.10;;;;;;5034887;28;20180;-79
2022/01/22 14:57:12;;;;;;;2.80;1.10;;;20.10;85.00;;;;;;5034721;28;20208;-79
2022/01/22 14:59:41;;;;;;;4.43;1.17;;;20.00;84.70;;;;;;5035607;28;20251;-79
2022/01/22 15:02:09;;;;;;;3.97;1.20;;;20.00;84.60;;;;;;5035070;28;20541;-78
2022/01/22 15:04:38;;;;;;;3.30;1.10;;;20.00;84.90;;;;;;5034930;28;20180;-79
2022/01/22 15:07:08;;;;;;;3.57;1.23;;;19.90;85.30;;;;;;5050907;28;20600;-79
2022/01/22 15:09:37;;;;;;;4.87;1.13;;;19.90;85.80;;;;;;5049010;28;20358;-77
2022/01/22 15:12:07;;;;;;;5.30;1.70;;;19.70;86.20;;;;;;5039626;28;20181;-78